sensor_id;sensor_type;location;lat;lon;timestamp;P1;durP1;ratioP1;P2;durP2;ratioP2
14092;SDS011;7123;49.468;10.992;2023-10-13T00:00:27;14.13;;;7.07;;
14092;SDS011;7123;49.468;10.992;2023-10-13T00:02:59;11.10;;;6.93;;
14092;SDS011;7123;49.468;10.992;2023-10-13T00:05:29;9.50;;;7.67;;
14092;SDS011;7123;49.468;10.992;2023-10-13T00:07:59;13.40;;;8.10;;
14092;SDS011;7123;49.468;10.992;2023-10-13T00:10:27;8.83;;;7.43;;
14092;SDS011;7123;49.468;10.992;2023-10-13T00:12:55;14.17;;;7.60;;
14092;SDS011;7123;49.468;10.992;2023-10-13T00:15:32;11.13;;;7.87;;
14092;SDS011;7123;49.468;10.992;2023-10-13T00:18:06;11.70;;;7.70;;
14092;SDS011;7123;49.468;10.992;2023-10-13T00:20:39;11.23;;;7.17;;
14092;SDS011;7123;49.468;10.992;2023-10-13T00:23:07;13.67;;;7.73;;
14092;SDS011;7123;49.468;10.992;2023-10-13T00:25:34;9.10;;;6.70;;
14092;SDS011;7123;49.468;10.992;2023-10-13T00:28:09;11.10;;;7.17;;
14092;SDS011;7123;49.468;10.992;2023-10-13T00:30:36;13.33;;;7.33;;
14092;SDS011;7123;49.468;10.992;2023-10-13T00:33:03;10.47;;;7.27;;
14092;SDS011;7123;49.468;10.992;2023-10-13T00:35:30;9.07;;;6.63;;
14092;SDS011;7123;49.468;10.992;2023-10-13T00:38:08;9.93;;;6.80;;
14092;SDS011;7123;49.468;10.992;2023-10-13T00:40:43;12.10;;;7.03;;
14092;SDS011;7123;49.468;10.992;2023-10-13T00:43:21;10.60;;;7.53;;
14092;SDS011;7123;49.468;10.992;2023-10-13T00:45:59;13.70;;;7.00;;
14092;SDS011;7123;49.468;10.992;2023-10-13T00:48:31;10.33;;;6.37;;
14092;SDS011;7123;49.468;10.992;2023-10-13T00:51:03;17.53;;;7.37;;
14092;SDS011;7123;49.468;10.992;2023-10-13T00:53:34;15.00;;;7.53;;
14092;SDS011;7123;49.468;10.992;2023-10-13T00:56:10;11.13;;;7.13;;
14092;SDS011;7123;49.468;10.992;2023-10-13T00:58:56;12.30;;;7.53;;
14092;SDS011;7123;49.468;10.992;2023-10-13T01:01:28;11.27;;;7.07;;
14092;SDS011;7123;49.468;10.992;2023-10-13T01:03:59;14.57;;;6.93;;
14092;SDS011;7123;49.468;10.992;2023-10-13T01:06:26;12.30;;;6.43;;
14092;SDS011;7123;49.468;10.992;2023-10-13T01:09:01;11.13;;;6.40;;
14092;SDS011;7123;49.468;10.992;2023-10-13T01:11:37;12.50;;;6.70;;
14092;SDS011;7123;49.468;10.992;2023-10-13T01:14:05;10.07;;;6.40;;
14092;SDS011;7123;49.468;10.992;2023-10-13T01:16:32;13.80;;;6.80;;
14092;SDS011;7123;49.468;10.992;2023-10-13T01:18:59;13.47;;;6.97;;
14092;SDS011;7123;49.468;10.992;2023-10-13T01:21:31;11.80;;;6.83;;
14092;SDS011;7123;49.468;10.992;2023-10-13T01:24:00;9.30;;;6.70;;
14092;SDS011;7123;49.468;10.992;2023-10-13T01:26:27;9.87;;;6.70;;
14092;SDS011;7123;49.468;10.992;2023-10-13T01:28:57;9.63;;;6.50;;
14092;SDS011;7123;49.468;10.992;2023-10-13T01:31:24;15.83;;;6.60;;
14092;SDS011;7123;49.468;10.992;2023-10-13T01:33:53;13.23;;;6.50;;
14092;SDS011;7123;49.468;10.992;2023-10-13T01:36:21;11.47;;;6.10;;
14092;SDS011;7123;49.468;10.992;2023-10-13T01:38:48;11.03;;;6.70;;
14092;SDS011;7123;49.468;10.992;2023-10-13T01:41:20;11.57;;;7.10;;
14092;SDS011;7123;49.468;10.992;2023-10-13T01:43:48;13.27;;;7.67;;
14092;SDS011;7123;49.468;10.992;2023-10-13T01:46:15;19.07;;;7.10;;
14092;SDS011;7123;49.468;10.992;2023-10-13T01:48:45;13.10;;;6.63;;
14092;SDS011;7123;49.468;10.992;2023-10-13T01:51:12;11.17;;;7.20;;
14092;SDS011;7123;49.468;10.992;2023-10-13T01:53:40;12.20;;;6.83;;
14092;SDS011;7123;49.468;10.992;2023-10-13T01:56:10;13.53;;;7.17;;
14092;SDS011;7123;49.468;10.992;2023-10-13T01:58:37;14.60;;;7.83;;
14092;SDS011;7123;49.468;10.992;2023-10-13T02:01:08;13.67;;;7.33;;
14092;SDS011;7123;49.468;10.992;2023-10-13T02:03:36;12.13;;;6.97;;
14092;SDS011;7123;49.468;10.992;2023-10-13T02:06:13;11.23;;;6.87;;
14092;SDS011;7123;49.468;10.992;2023-10-13T02:08:43;12.00;;;7.03;;
14092;SDS011;7123;49.468;10.992;2023-10-13T02:11:13;14.20;;;7.80;;
14092;SDS011;7123;49.468;10.992;2023-10-13T02:13:44;8.53;;;7.50;;
14092;SDS011;7123;49.468;10.992;2023-10-13T02:16:16;10.33;;;7.37;;
14092;SDS011;7123;49.468;10.992;2023-10-13T02:18:48;10.83;;;6.83;;
14092;SDS011;7123;49.468;10.992;2023-10-13T02:21:18;12.90;;;6.53;;
14092;SDS011;7123;49.468;10.992;2023-10-13T02:23:44;12.07;;;7.10;;
14092;SDS011;7123;49.468;10.992;2023-10-13T02:26:12;11.47;;;6.40;;
14092;SDS011;7123;49.468;10.992;2023-10-13T02:28:59;8.63;;;7.10;;
14092;SDS011;7123;49.468;10.992;2023-10-13T02:31:36;10.17;;;6.63;;
14092;SDS011;7123;49.468;10.992;2023-10-13T02:34:04;12.23;;;6.93;;
14092;SDS011;7123;49.468;10.992;2023-10-13T02:36:38;11.63;;;6.47;;
14092;SDS011;7123;49.468;10.992;2023-10-13T02:39:18;13.97;;;7.20;;
14092;SDS011;7123;49.468;10.992;2023-10-13T02:41:53;11.70;;;6.93;;
14092;SDS011;7123;49.468;10.992;2023-10-13T02:44:23;10.13;;;7.03;;
14092;SDS011;7123;49.468;10.992;2023-10-13T02:46:54;17.40;;;7.37;;
14092;SDS011;7123;49.468;10.992;2023-10-13T02:49:25;12.73;;;7.20;;
14092;SDS011;7123;49.468;10.992;2023-10-13T02:51:53;14.43;;;7.30;;
14092;SDS011;7123;49.468;10.992;2023-10-13T02:54:25;14.50;;;7.70;;
14092;SDS011;7123;49.468;10.992;2023-10-13T02:56:57;11.67;;;6.63;;
14092;SDS011;7123;49.468;10.992;2023-10-13T02:59:25;11.50;;;6.80;;
14092;SDS011;7123;49.468;10.992;2023-10-13T03:02:15;15.10;;;7.40;;
14092;SDS011;7123;49.468;10.992;2023-10-13T03:04:48;9.97;;;6.87;;
14092;SDS011;7123;49.468;10.992;2023-10-13T03:07:16;12.50;;;7.80;;
14092;SDS011;7123;49.468;10.992;2023-10-13T03:09:50;8.60;;;7.03;;
14092;SDS011;7123;49.468;10.992;2023-10-13T03:12:18;8.83;;;7.43;;
14092;SDS011;7123;49.468;10.992;2023-10-13T03:14:45;10.23;;;7.20;;
14092;SDS011;7123;49.468;10.992;2023-10-13T03:17:15;10.73;;;6.80;;
14092;SDS011;7123;49.468;10.992;2023-10-13T03:19:45;11.17;;;7.50;;
14092;SDS011;7123;49.468;10.992;2023-10-13T03:22:17;14.27;;;7.80;;
14092;SDS011;7123;49.468;10.992;2023-10-13T03:24:44;11.10;;;7.77;;
14092;SDS011;7123;49.468;10.992;2023-10-13T03:27:13;10.70;;;7.60;;
14092;SDS011;7123;49.468;10.992;2023-10-13T03:29:48;11.13;;;7.50;;
14092;SDS011;7123;49.468;10.992;2023-10-13T03:32:22;14.93;;;8.30;;
14092;SDS011;7123;49.468;10.992;2023-10-13T03:34:53;14.57;;;7.53;;
14092;SDS011;7123;49.468;10.992;2023-10-13T03:37:20;11.43;;;7.33;;
14092;SDS011;7123;49.468;10.992;2023-10-13T03:40:06;13.80;;;7.30;;
14092;SDS011;7123;49.468;10.992;2023-10-13T03:42:46;12.97;;;7.80;;
14092;SDS011;7123;49.468;10.992;2023-10-13T03:45:33;11.70;;;7.47;;
14092;SDS011;7123;49.468;10.992;2023-10-13T03:48:06;12.00;;;9.00;;
14092;SDS011;7123;49.468;10.992;2023-10-13T03:50:53;11.13;;;7.60;;
14092;SDS011;7123;49.468;10.992;2023-10-13T03:53:30;16.07;;;8.23;;
14092;SDS011;7123;49.468;10.992;2023-10-13T03:56:04;12.30;;;7.53;;
14092;SDS011;7123;49.468;10.992;2023-10-13T03:58:38;13.27;;;7.77;;
14092;SDS011;7123;49.468;10.992;2023-10-13T04:01:13;13.23;;;7.40;;
14092;SDS011;7123;49.468;10.992;2023-10-13T04:03:42;12.13;;;7.60;;
14092;SDS011;7123;49.468;10.992;2023-10-13T04:06:30;14.23;;;8.30;;
14092;SDS011;7123;49.468;10.992;2023-10-13T04:09:20;10.73;;;7.40;;
14092;SDS011;7123;49.468;10.992;2023-10-13T04:12:00;13.60;;;8.13;;
14092;SDS011;7123;49.468;10.992;2023-10-13T04:14:52;14.67;;;7.40;;
14092;SDS011;7123;49.468;10.992;2023-10-13T04:17:32;11.87;;;7.10;;
14092;SDS011;7123;49.468;10.992;2023-10-13T04:20:07;12.23;;;7.90;;
14092;SDS011;7123;49.468;10.992;2023-10-13T04:22:41;10.97;;;7.70;;
14092;SDS011;7123;49.468;10.992;2023-10-13T04:25:26;9.77;;;7.07;;
14092;SDS011;7123;49.468;10.992;2023-10-13T04:28:09;15.50;;;7.50;;
14092;SDS011;7123;49.468;10.992;2023-10-13T04:33:28;10.13;;;7.47;;
14092;SDS011;7123;49.468;10.992;2023-10-13T04:36:03;11.80;;;7.30;;
14092;SDS011;7123;49.468;10.992;2023-10-13T04:38:49;12.50;;;7.23;;
14092;SDS011;7123;49.468;10.992;2023-10-13T04:41:36;12.63;;;7.63;;
14092;SDS011;7123;49.468;10.992;2023-10-13T04:44:12;11.67;;;7.50;;
14092;SDS011;7123;49.468;10.992;2023-10-13T04:47:10;9.23;;;7.20;;
14092;SDS011;7123;49.468;10.992;2023-10-13T04:49:44;9.97;;;7.00;;
14092;SDS011;7123;49.468;10.992;2023-10-13T04:52:14;13.23;;;7.87;;
14092;SDS011;7123;49.468;10.992;2023-10-13T04:55:01;13.17;;;7.33;;
14092;SDS011;7123;49.468;10.992;2023-10-13T04:57:51;8.87;;;7.70;;
14092;SDS011;7123;49.468;10.992;2023-10-13T05:00:26;9.57;;;7.67;;
14092;SDS011;7123;49.468;10.992;2023-10-13T05:03:11;12.23;;;7.17;;
14092;SDS011;7123;49.468;10.992;2023-10-13T05:05:58;11.57;;;6.53;;
14092;SDS011;7123;49.468;10.992;2023-10-13T05:08:57;9.33;;;7.27;;
14092;SDS011;7123;49.468;10.992;2023-10-13T05:11:42;13.60;;;7.87;;
14092;SDS011;7123;49.468;10.992;2023-10-13T05:14:27;13.50;;;7.37;;
14092;SDS011;7123;49.468;10.992;2023-10-13T05:17:13;12.57;;;7.60;;
14092;SDS011;7123;49.468;10.992;2023-10-13T05:19:58;12.27;;;7.27;;
14092;SDS011;7123;49.468;10.992;2023-10-13T05:22:43;12.67;;;7.30;;
14092;SDS011;7123;49.468;10.992;2023-10-13T05:25:29;9.40;;;7.37;;
14092;SDS011;7123;49.468;10.992;2023-10-13T05:28:14;11.23;;;6.80;;
14092;SDS011;7123;49.468;10.992;2023-10-13T05:31:10;13.40;;;7.30;;
14092;SDS011;7123;49.468;10.992;2023-10-13T05:33:56;11.10;;;7.50;;
14092;SDS011;7123;49.468;10.992;2023-10-13T05:36:41;12.57;;;6.90;;
14092;SDS011;7123;49.468;10.992;2023-10-13T05:39:27;10.63;;;7.23;;
14092;SDS011;7123;49.468;10.992;2023-10-13T05:42:12;9.90;;;7.07;;
14092;SDS011;7123;49.468;10.992;2023-10-13T05:44:58;12.23;;;7.10;;
14092;SDS011;7123;49.468;10.992;2023-10-13T05:47:43;9.93;;;7.20;;
14092;SDS011;7123;49.468;10.992;2023-10-13T05:50:11;13.13;;;7.33;;
14092;SDS011;7123;49.468;10.992;2023-10-13T05:52:48;14.70;;;7.53;;
14092;SDS011;7123;49.468;10.992;2023-10-13T05:55:25;11.03;;;6.63;;
14092;SDS011;7123;49.468;10.992;2023-10-13T05:58:11;13.23;;;6.77;;
14092;SDS011;7123;49.468;10.992;2023-10-13T06:00:57;11.47;;;7.07;;
14092;SDS011;7123;49.468;10.992;2023-10-13T06:03:43;16.03;;;7.57;;
14092;SDS011;7123;49.468;10.992;2023-10-13T06:06:28;11.43;;;7.03;;
14092;SDS011;7123;49.468;10.992;2023-10-13T06:09:14;12.13;;;6.70;;
14092;SDS011;7123;49.468;10.992;2023-10-13T06:11:59;12.00;;;7.10;;
14092;SDS011;7123;49.468;10.992;2023-10-13T06:14:45;10.20;;;6.97;;
14092;SDS011;7123;49.468;10.992;2023-10-13T06:17:31;9.30;;;6.47;;
14092;SDS011;7123;49.468;10.992;2023-10-13T06:20:17;14.40;;;7.20;;
14092;SDS011;7123;49.468;10.992;2023-10-13T06:23:02;8.57;;;6.80;;
14092;SDS011;7123;49.468;10.992;2023-10-13T06:25:51;11.67;;;7.37;;
14092;SDS011;7123;49.468;10.992;2023-10-13T06:28:37;11.33;;;7.10;;
14092;SDS011;7123;49.468;10.992;2023-10-13T06:31:08;11.80;;;7.40;;
14092;SDS011;7123;49.468;10.992;2023-10-13T06:33:54;12.20;;;7.10;;
14092;SDS011;7123;49.468;10.992;2023-10-13T06:36:22;13.70;;;7.43;;
14092;SDS011;7123;49.468;10.992;2023-10-13T06:38:49;14.70;;;7.30;;
14092;SDS011;7123;49.468;10.992;2023-10-13T06:41:22;13.80;;;7.10;;
14092;SDS011;7123;49.468;10.992;2023-10-13T06:43:57;12.50;;;7.67;;
14092;SDS011;7123;49.468;10.992;2023-10-13T06:46:27;9.77;;;6.87;;
14092;SDS011;7123;49.468;10.992;2023-10-13T06:48:55;11.60;;;7.53;;
14092;SDS011;7123;49.468;10.992;2023-10-13T06:51:26;9.80;;;6.97;;
14092;SDS011;7123;49.468;10.992;2023-10-13T06:53:57;13.77;;;7.03;;
14092;SDS011;7123;49.468;10.992;2023-10-13T06:56:24;14.33;;;7.13;;
14092;SDS011;7123;49.468;10.992;2023-10-13T06:58:54;9.83;;;6.90;;
14092;SDS011;7123;49.468;10.992;2023-10-13T07:01:31;8.80;;;6.70;;
14092;SDS011;7123;49.468;10.992;2023-10-13T07:04:08;10.73;;;7.10;;
14092;SDS011;7123;49.468;10.992;2023-10-13T07:06:43;13.67;;;6.03;;
14092;SDS011;7123;49.468;10.992;2023-10-13T07:09:16;13.10;;;6.40;;
14092;SDS011;7123;49.468;10.992;2023-10-13T07:12:02;11.50;;;6.50;;
14092;SDS011;7123;49.468;10.992;2023-10-13T07:14:33;9.97;;;6.37;;
14092;SDS011;7123;49.468;10.992;2023-10-13T07:17:00;11.10;;;6.53;;
14092;SDS011;7123;49.468;10.992;2023-10-13T07:19:31;9.73;;;6.60;;
14092;SDS011;7123;49.468;10.992;2023-10-13T07:22:03;11.33;;;6.00;;
14092;SDS011;7123;49.468;10.992;2023-10-13T07:24:46;9.27;;;5.73;;
14092;SDS011;7123;49.468;10.992;2023-10-13T07:27:17;9.07;;;5.73;;
14092;SDS011;7123;49.468;10.992;2023-10-13T07:29:53;10.00;;;5.83;;
14092;SDS011;7123;49.468;10.992;2023-10-13T07:32:43;7.57;;;6.50;;
14092;SDS011;7123;49.468;10.992;2023-10-13T07:35:15;10.43;;;5.73;;
14092;SDS011;7123;49.468;10.992;2023-10-13T07:37:44;11.67;;;6.53;;
14092;SDS011;7123;49.468;10.992;2023-10-13T07:40:11;12.03;;;6.00;;
14092;SDS011;7123;49.468;10.992;2023-10-13T07:42:50;8.73;;;5.63;;
14092;SDS011;7123;49.468;10.992;2023-10-13T07:45:17;10.23;;;5.63;;
14092;SDS011;7123;49.468;10.992;2023-10-13T07:47:48;8.03;;;5.80;;
14092;SDS011;7123;49.468;10.992;2023-10-13T07:50:16;8.93;;;4.90;;
14092;SDS011;7123;49.468;10.992;2023-10-13T07:52:51;8.70;;;5.13;;
14092;SDS011;7123;49.468;10.992;2023-10-13T07:55:45;7.93;;;5.37;;
14092;SDS011;7123;49.468;10.992;2023-10-13T07:58:13;7.57;;;5.33;;
14092;SDS011;7123;49.468;10.992;2023-10-13T08:00:40;8.93;;;5.37;;
14092;SDS011;7123;49.468;10.992;2023-10-13T08:03:10;11.67;;;5.43;;
14092;SDS011;7123;49.468;10.992;2023-10-13T08:05:43;10.43;;;5.17;;
14092;SDS011;7123;49.468;10.992;2023-10-13T08:08:33;12.03;;;5.40;;
14092;SDS011;7123;49.468;10.992;2023-10-13T08:11:06;12.37;;;4.97;;
14092;SDS011;7123;49.468;10.992;2023-10-13T08:13:49;7.33;;;4.93;;
14092;SDS011;7123;49.468;10.992;2023-10-13T08:16:40;9.73;;;5.00;;
14092;SDS011;7123;49.468;10.992;2023-10-13T08:19:15;8.77;;;4.83;;
14092;SDS011;7123;49.468;10.992;2023-10-13T08:21:43;7.33;;;5.27;;
14092;SDS011;7123;49.468;10.992;2023-10-13T08:24:24;10.53;;;5.87;;
14092;SDS011;7123;49.468;10.992;2023-10-13T08:27:06;8.43;;;5.00;;
14092;SDS011;7123;49.468;10.992;2023-10-13T08:29:43;10.87;;;4.97;;
14092;SDS011;7123;49.468;10.992;2023-10-13T08:32:27;7.23;;;4.80;;
14092;SDS011;7123;49.468;10.992;2023-10-13T08:34:56;12.73;;;5.50;;
14092;SDS011;7123;49.468;10.992;2023-10-13T08:37:38;11.90;;;5.23;;
14092;SDS011;7123;49.468;10.992;2023-10-13T08:40:36;8.57;;;5.53;;
14092;SDS011;7123;49.468;10.992;2023-10-13T08:43:31;10.33;;;4.93;;
14092;SDS011;7123;49.468;10.992;2023-10-13T08:46:09;6.97;;;4.73;;
14092;SDS011;7123;49.468;10.992;2023-10-13T08:48:52;9.73;;;5.50;;
14092;SDS011;7123;49.468;10.992;2023-10-13T08:51:32;8.43;;;5.40;;
14092;SDS011;7123;49.468;10.992;2023-10-13T08:54:12;10.17;;;5.33;;
14092;SDS011;7123;49.468;10.992;2023-10-13T08:56:47;10.83;;;4.90;;
14092;SDS011;7123;49.468;10.992;2023-10-13T08:59:29;8.13;;;4.67;;
14092;SDS011;7123;49.468;10.992;2023-10-13T09:02:11;7.37;;;5.10;;
14092;SDS011;7123;49.468;10.992;2023-10-13T09:04:42;9.77;;;4.17;;
14092;SDS011;7123;49.468;10.992;2023-10-13T09:07:13;10.73;;;4.63;;
14092;SDS011;7123;49.468;10.992;2023-10-13T09:09:49;6.20;;;4.30;;
14092;SDS011;7123;49.468;10.992;2023-10-13T09:12:22;6.87;;;4.57;;
14092;SDS011;7123;49.468;10.992;2023-10-13T09:14:58;7.53;;;4.80;;
14092;SDS011;7123;49.468;10.992;2023-10-13T09:17:31;10.20;;;5.03;;
14092;SDS011;7123;49.468;10.992;2023-10-13T09:20:08;7.00;;;4.40;;
14092;SDS011;7123;49.468;10.992;2023-10-13T09:22:59;7.97;;;4.80;;
14092;SDS011;7123;49.468;10.992;2023-10-13T09:25:34;8.10;;;4.50;;
14092;SDS011;7123;49.468;10.992;2023-10-13T09:28:03;8.30;;;4.27;;
14092;SDS011;7123;49.468;10.992;2023-10-13T09:30:54;6.80;;;4.90;;
14092;SDS011;7123;49.468;10.992;2023-10-13T09:33:25;7.47;;;4.47;;
14092;SDS011;7123;49.468;10.992;2023-10-13T09:36:03;10.40;;;4.43;;
14092;SDS011;7123;49.468;10.992;2023-10-13T09:38:34;11.33;;;4.63;;
14092;SDS011;7123;49.468;10.992;2023-10-13T09:41:21;8.00;;;5.00;;
14092;SDS011;7123;49.468;10.992;2023-10-13T09:43:53;13.83;;;4.97;;
14092;SDS011;7123;49.468;10.992;2023-10-13T09:46:26;8.40;;;5.00;;
14092;SDS011;7123;49.468;10.992;2023-10-13T09:48:57;11.60;;;4.70;;
14092;SDS011;7123;49.468;10.992;2023-10-13T09:51:31;9.00;;;4.87;;
14092;SDS011;7123;49.468;10.992;2023-10-13T09:54:10;8.53;;;4.63;;
14092;SDS011;7123;49.468;10.992;2023-10-13T09:57:04;9.43;;;5.17;;
14092;SDS011;7123;49.468;10.992;2023-10-13T09:59:40;9.40;;;4.90;;
14092;SDS011;7123;49.468;10.992;2023-10-13T10:02:18;6.03;;;4.73;;
14092;SDS011;7123;49.468;10.992;2023-10-13T10:04:52;11.37;;;4.73;;
14092;SDS011;7123;49.468;10.992;2023-10-13T10:07:25;9.47;;;4.40;;
14092;SDS011;7123;49.468;10.992;2023-10-13T10:09:56;6.63;;;4.60;;
14092;SDS011;7123;49.468;10.992;2023-10-13T10:18:21;7.53;;;4.40;;
14092;SDS011;7123;49.468;10.992;2023-10-13T10:20:51;9.80;;;4.80;;
14092;SDS011;7123;49.468;10.992;2023-10-13T10:23:32;5.50;;;3.97;;
14092;SDS011;7123;49.468;10.992;2023-10-13T10:26:14;6.23;;;4.53;;
14092;SDS011;7123;49.468;10.992;2023-10-13T10:28:46;7.10;;;4.33;;
14092;SDS011;7123;49.468;10.992;2023-10-13T10:31:13;8.07;;;3.97;;
14092;SDS011;7123;49.468;10.992;2023-10-13T10:33:46;9.03;;;4.50;;
14092;SDS011;7123;49.468;10.992;2023-10-13T10:36:17;8.20;;;4.50;;
14092;SDS011;7123;49.468;10.992;2023-10-13T10:38:56;6.87;;;4.30;;
14092;SDS011;7123;49.468;10.992;2023-10-13T10:41:29;11.63;;;4.27;;
14092;SDS011;7123;49.468;10.992;2023-10-13T10:44:14;7.10;;;4.10;;
14092;SDS011;7123;49.468;10.992;2023-10-13T10:46:43;5.77;;;3.63;;
14092;SDS011;7123;49.468;10.992;2023-10-13T10:49:26;7.97;;;4.10;;
14092;SDS011;7123;49.468;10.992;2023-10-13T10:51:58;5.17;;;3.77;;
14092;SDS011;7123;49.468;10.992;2023-10-13T10:54:27;8.03;;;3.90;;
14092;SDS011;7123;49.468;10.992;2023-10-13T10:57:00;13.03;;;4.10;;
14092;SDS011;7123;49.468;10.992;2023-10-13T10:59:53;6.33;;;3.60;;
14092;SDS011;7123;49.468;10.992;2023-10-13T11:02:37;8.60;;;3.83;;
14092;SDS011;7123;49.468;10.992;2023-10-13T11:05:05;4.97;;;3.47;;
14092;SDS011;7123;49.468;10.992;2023-10-13T11:07:33;7.30;;;3.72;;
14092;SDS011;7123;49.468;10.992;2023-10-13T11:10:09;8.32;;;3.90;;
14092;SDS011;7123;49.468;10.992;2023-10-13T11:12:58;7.57;;;3.77;;
14092;SDS011;7123;49.468;10.992;2023-10-13T11:15:42;5.75;;;3.28;;
14092;SDS011;7123;49.468;10.992;2023-10-13T11:18:12;22.60;;;3.60;;
14092;SDS011;7123;49.468;10.992;2023-10-13T11:20:45;15.52;;;3.97;;
14092;SDS011;7123;49.468;10.992;2023-10-13T11:23:14;8.70;;;3.97;;
14092;SDS011;7123;49.468;10.992;2023-10-13T11:25:41;6.47;;;3.60;;
14092;SDS011;7123;49.468;10.992;2023-10-13T11:28:14;4.05;;;3.30;;
14092;SDS011;7123;49.468;10.992;2023-10-13T11:30:57;9.50;;;3.83;;
14092;SDS011;7123;49.468;10.992;2023-10-13T11:33:30;5.70;;;3.20;;
14092;SDS011;7123;49.468;10.992;2023-10-13T11:36:00;8.23;;;3.60;;
14092;SDS011;7123;49.468;10.992;2023-10-13T11:38:31;7.85;;;4.22;;
14092;SDS011;7123;49.468;10.992;2023-10-13T11:41:17;4.93;;;3.05;;
14092;SDS011;7123;49.468;10.992;2023-10-13T11:46:23;6.70;;;3.88;;
14092;SDS011;7123;49.468;10.992;2023-10-13T11:49:05;10.45;;;3.78;;
14092;SDS011;7123;49.468;10.992;2023-10-13T11:51:42;8.50;;;3.92;;
14092;SDS011;7123;49.468;10.992;2023-10-13T11:54:20;6.10;;;3.33;;
14092;SDS011;7123;49.468;10.992;2023-10-13T11:56:49;6.15;;;3.40;;
14092;SDS011;7123;49.468;10.992;2023-10-13T11:59:16;8.27;;;3.70;;
14092;SDS011;7123;49.468;10.992;2023-10-13T12:01:44;7.75;;;3.78;;
14092;SDS011;7123;49.468;10.992;2023-10-13T12:04:31;15.48;;;3.85;;
14092;SDS011;7123;49.468;10.992;2023-10-13T12:07:10;6.85;;;3.83;;
14092;SDS011;7123;49.468;10.992;2023-10-13T12:09:50;5.38;;;3.67;;
14092;SDS011;7123;49.468;10.992;2023-10-13T12:12:20;4.55;;;3.40;;
14092;SDS011;7123;49.468;10.992;2023-10-13T12:15:07;11.27;;;3.97;;
14092;SDS011;7123;49.468;10.992;2023-10-13T12:17:52;6.82;;;3.70;;
14092;SDS011;7123;49.468;10.992;2023-10-13T12:20:20;8.68;;;3.80;;
14092;SDS011;7123;49.468;10.992;2023-10-13T12:23:00;6.57;;;3.63;;
14092;SDS011;7123;49.468;10.992;2023-10-13T12:25:41;12.32;;;3.45;;
14092;SDS011;7123;49.468;10.992;2023-10-13T12:28:22;7.65;;;3.63;;
14092;SDS011;7123;49.468;10.992;2023-10-13T12:30:49;12.23;;;4.18;;
14092;SDS011;7123;49.468;10.992;2023-10-13T12:33:22;11.55;;;3.83;;
14092;SDS011;7123;49.468;10.992;2023-10-13T12:35:55;6.40;;;3.65;;
14092;SDS011;7123;49.468;10.992;2023-10-13T12:38:41;7.20;;;3.97;;
14092;SDS011;7123;49.468;10.992;2023-10-13T12:41:14;11.73;;;3.88;;
14092;SDS011;7123;49.468;10.992;2023-10-13T12:44:02;5.68;;;3.40;;
14092;SDS011;7123;49.468;10.992;2023-10-13T12:46:49;10.57;;;4.28;;
14092;SDS011;7123;49.468;10.992;2023-10-13T12:49:39;8.63;;;4.00;;
14092;SDS011;7123;49.468;10.992;2023-10-13T12:52:09;13.98;;;4.15;;
14092;SDS011;7123;49.468;10.992;2023-10-13T12:54:43;6.55;;;3.75;;
14092;SDS011;7123;49.468;10.992;2023-10-13T12:57:23;8.63;;;3.67;;
14092;SDS011;7123;49.468;10.992;2023-10-13T12:59:54;5.90;;;3.38;;
14092;SDS011;7123;49.468;10.992;2023-10-13T13:02:22;10.63;;;3.50;;
14092;SDS011;7123;49.468;10.992;2023-10-13T13:04:55;9.85;;;3.63;;
14092;SDS011;7123;49.468;10.992;2023-10-13T13:07:43;7.97;;;3.35;;
14092;SDS011;7123;49.468;10.992;2023-10-13T13:10:16;7.68;;;3.40;;
14092;SDS011;7123;49.468;10.992;2023-10-13T13:12:43;14.60;;;3.65;;
14092;SDS011;7123;49.468;10.992;2023-10-13T13:15:10;8.15;;;3.63;;
14092;SDS011;7123;49.468;10.992;2023-10-13T13:17:38;9.02;;;3.42;;
14092;SDS011;7123;49.468;10.992;2023-10-13T13:20:06;13.20;;;4.15;;
14092;SDS011;7123;49.468;10.992;2023-10-13T13:22:38;8.52;;;3.70;;
14092;SDS011;7123;49.468;10.992;2023-10-13T13:25:05;6.90;;;3.30;;
14092;SDS011;7123;49.468;10.992;2023-10-13T13:27:35;8.27;;;3.33;;
14092;SDS011;7123;49.468;10.992;2023-10-13T13:30:08;9.95;;;3.53;;
14092;SDS011;7123;49.468;10.992;2023-10-13T13:32:39;8.32;;;3.30;;
14092;SDS011;7123;49.468;10.992;2023-10-13T13:35:07;5.45;;;3.55;;
14092;SDS011;7123;49.468;10.992;2023-10-13T13:37:39;9.15;;;3.30;;
14092;SDS011;7123;49.468;10.992;2023-10-13T13:40:09;9.15;;;3.63;;
14092;SDS011;7123;49.468;10.992;2023-10-13T13:42:44;8.90;;;3.08;;
14092;SDS011;7123;49.468;10.992;2023-10-13T13:45:12;14.48;;;3.40;;
14092;SDS011;7123;49.468;10.992;2023-10-13T13:47:50;6.55;;;3.38;;
14092;SDS011;7123;49.468;10.992;2023-10-13T13:50:21;8.55;;;3.38;;
14092;SDS011;7123;49.468;10.992;2023-10-13T13:52:56;5.57;;;3.08;;
14092;SDS011;7123;49.468;10.992;2023-10-13T13:55:23;12.30;;;3.60;;
14092;SDS011;7123;49.468;10.992;2023-10-13T13:57:55;10.00;;;3.38;;
14092;SDS011;7123;49.468;10.992;2023-10-13T14:00:22;7.85;;;3.40;;
14092;SDS011;7123;49.468;10.992;2023-10-13T14:03:04;9.43;;;3.22;;
14092;SDS011;7123;49.468;10.992;2023-10-13T14:05:42;9.93;;;3.50;;
14092;SDS011;7123;49.468;10.992;2023-10-13T14:08:09;7.20;;;3.40;;
14092;SDS011;7123;49.468;10.992;2023-10-13T14:10:38;6.93;;;3.50;;
14092;SDS011;7123;49.468;10.992;2023-10-13T14:13:23;12.60;;;3.63;;
14092;SDS011;7123;49.468;10.992;2023-10-13T14:16:10;12.60;;;3.50;;
14092;SDS011;7123;49.468;10.992;2023-10-13T14:18:46;7.20;;;3.28;;
14092;SDS011;7123;49.468;10.992;2023-10-13T14:21:14;7.18;;;3.35;;
14092;SDS011;7123;49.468;10.992;2023-10-13T14:23:45;12.65;;;3.97;;
14092;SDS011;7123;49.468;10.992;2023-10-13T14:26:14;8.18;;;3.40;;
14092;SDS011;7123;49.468;10.992;2023-10-13T14:28:52;9.63;;;3.63;;
14092;SDS011;7123;49.468;10.992;2023-10-13T14:31:32;10.85;;;3.47;;
14092;SDS011;7123;49.468;10.992;2023-10-13T14:33:59;11.57;;;3.70;;
14092;SDS011;7123;49.468;10.992;2023-10-13T14:36:26;13.50;;;3.40;;
14092;SDS011;7123;49.468;10.992;2023-10-13T14:38:55;12.82;;;3.30;;
14092;SDS011;7123;49.468;10.992;2023-10-13T14:41:22;8.00;;;3.15;;
14092;SDS011;7123;49.468;10.992;2023-10-13T14:43:49;9.95;;;3.15;;
14092;SDS011;7123;49.468;10.992;2023-10-13T14:46:16;6.57;;;3.45;;
14092;SDS011;7123;49.468;10.992;2023-10-13T14:48:43;8.07;;;3.30;;
14092;SDS011;7123;49.468;10.992;2023-10-13T14:51:11;5.63;;;2.97;;
14092;SDS011;7123;49.468;10.992;2023-10-13T14:53:43;10.63;;;3.50;;
14092;SDS011;7123;49.468;10.992;2023-10-13T14:56:11;8.43;;;3.17;;
14092;SDS011;7123;49.468;10.992;2023-10-13T14:58:41;11.73;;;3.58;;
14092;SDS011;7123;49.468;10.992;2023-10-13T15:01:16;8.77;;;3.20;;
14092;SDS011;7123;49.468;10.992;2023-10-13T15:03:47;9.52;;;3.17;;
14092;SDS011;7123;49.468;10.992;2023-10-13T15:06:15;11.43;;;3.78;;
14092;SDS011;7123;49.468;10.992;2023-10-13T15:08:58;11.98;;;3.17;;
14092;SDS011;7123;49.468;10.992;2023-10-13T15:11:27;12.07;;;3.80;;
14092;SDS011;7123;49.468;10.992;2023-10-13T15:14:12;7.75;;;3.10;;
14092;SDS011;7123;49.468;10.992;2023-10-13T15:16:39;7.10;;;3.38;;
14092;SDS011;7123;49.468;10.992;2023-10-13T15:19:07;13.40;;;3.05;;
14092;SDS011;7123;49.468;10.992;2023-10-13T15:21:36;10.05;;;3.30;;
14092;SDS011;7123;49.468;10.992;2023-10-13T15:24:03;10.85;;;3.28;;
14092;SDS011;7123;49.468;10.992;2023-10-13T15:26:51;7.70;;;3.53;;
14092;SDS011;7123;49.468;10.992;2023-10-13T15:29:23;6.95;;;2.70;;
14092;SDS011;7123;49.468;10.992;2023-10-13T15:31:56;7.05;;;3.33;;
14092;SDS011;7123;49.468;10.992;2023-10-13T15:34:26;9.27;;;3.53;;
14092;SDS011;7123;49.468;10.992;2023-10-13T15:36:55;8.43;;;3.30;;
14092;SDS011;7123;49.468;10.992;2023-10-13T15:39:23;7.53;;;3.20;;